createdAt,value
2022-09-23T00:01:20.793Z,60.65
2022-09-23T00:03:49.548Z,27.88
2022-09-23T00:06:19.831Z,27.13
2022-09-23T00:08:49.765Z,32.75
2022-09-23T00:11:20.008Z,32.22
2022-09-23T00:13:49.702Z,30.67
2022-09-23T00:16:21.521Z,30.55
2022-09-23T00:18:51.079Z,23.67
2022-09-23T00:21:20.400Z,21.75
2022-09-23T00:23:48.563Z,24.80
2022-09-23T00:26:19.188Z,12.02
2022-09-23T00:28:47.100Z,16.10
2022-09-23T00:31:18.071Z,22.88
2022-09-23T00:33:45.467Z,16.95
2022-09-23T00:36:16.536Z,14.68
2022-09-23T00:38:45.425Z,11.52
2022-09-23T00:41:16.578Z,15.18
2022-09-23T00:43:48.725Z,16.90
2022-09-23T00:46:27.868Z,11.52
2022-09-23T00:49:03.304Z,9.68
2022-09-23T00:51:36.154Z,15.95
2022-09-23T00:54:04.095Z,14.25
2022-09-23T00:56:33.078Z,15.02
2022-09-23T00:59:01.448Z,14.38
2022-09-23T01:01:28.981Z,14.98
2022-09-23T01:03:57.916Z,24.90
2022-09-23T01:06:25.454Z,12.27
2022-09-23T01:08:53.199Z,12.88
2022-09-23T01:11:46.043Z,21.75
2022-09-23T01:22:31.308Z,39.47
2022-09-23T01:30:36.681Z,19.95
2022-09-23T01:33:13.525Z,32.15
2022-09-23T01:36:19.319Z,21.58
2022-09-23T01:39:11.527Z,16.48
2022-09-23T01:44:29.623Z,28.40
2022-09-23T01:47:08.374Z,22.13
2022-09-23T01:52:28.786Z,25.25
2022-09-23T01:55:08.985Z,22.88
2022-09-23T01:57:43.930Z,23.73
2022-09-23T02:00:15.514Z,22.33
2022-09-23T02:02:56.520Z,18.58
2022-09-23T02:08:15.004Z,23.03
2022-09-23T02:10:56.420Z,21.50
2022-09-23T02:13:30.807Z,16.70
2022-09-23T02:16:02.470Z,15.60
2022-09-23T02:21:06.605Z,18.38
2022-09-23T02:23:42.745Z,22.13
2022-09-23T02:26:35.809Z,15.85
2022-09-23T02:31:53.934Z,36.88
2022-09-23T02:34:43.333Z,49.58
2022-09-23T02:40:23.794Z,38.30
2022-09-23T02:45:28.811Z,38.38
2022-09-23T02:48:04.229Z,42.35
2022-09-23T02:50:32.867Z,42.30
2022-09-23T02:53:01.366Z,34.17
2022-09-23T02:55:33.774Z,34.67
2022-09-23T02:58:03.329Z,40.85
2022-09-23T03:00:57.460Z,36.15
2022-09-23T03:06:16.408Z,36.38
2022-09-23T03:08:51.395Z,50.00
2022-09-23T03:11:20.838Z,38.70
2022-09-23T03:14:17.985Z,42.75
2022-09-23T03:16:58.599Z,66.65
2022-09-23T03:19:35.303Z,63.00
2022-09-23T03:25:07.389Z,63.13
2022-09-23T03:27:36.865Z,61.38
2022-09-23T03:30:07.130Z,53.47
2022-09-23T03:32:36.456Z,43.00
2022-09-23T03:35:05.783Z,50.15
2022-09-23T03:37:38.682Z,45.10
2022-09-23T03:40:18.406Z,43.30
2022-09-23T03:42:49.130Z,44.28
2022-09-23T03:45:21.849Z,40.22
2022-09-23T03:47:49.220Z,41.28
2022-09-23T03:50:17.739Z,36.65
2022-09-23T03:52:45.315Z,36.63
2022-09-23T03:55:12.673Z,38.22
2022-09-23T03:57:40.025Z,34.10
2022-09-23T04:00:09.037Z,36.63
2022-09-23T04:02:40.120Z,29.80
2022-09-23T04:05:08.728Z,31.52
2022-09-23T04:07:35.980Z,24.15
2022-09-23T04:10:05.186Z,25.65
2022-09-23T04:12:32.437Z,25.60
2022-09-23T04:15:00.363Z,25.17
2022-09-23T04:17:27.660Z,21.92
2022-09-23T04:19:55.061Z,23.38
2022-09-23T04:22:22.562Z,27.85
2022-09-23T04:24:49.917Z,26.85
2022-09-23T04:27:17.246Z,27.35
2022-09-23T04:29:44.885Z,21.58
2022-09-23T04:32:12.193Z,21.45
2022-09-23T04:34:39.521Z,19.90
2022-09-23T04:37:06.924Z,20.55
2022-09-23T04:39:34.322Z,18.17
2022-09-23T04:42:01.625Z,19.42
2022-09-23T04:44:29.827Z,15.77
2022-09-23T04:46:57.237Z,15.07
2022-09-23T04:49:24.802Z,18.80
2022-09-23T04:51:52.074Z,15.95
2022-09-23T04:54:19.432Z,17.42
2022-09-23T04:56:46.639Z,19.20
2022-09-23T04:59:13.983Z,13.15
2022-09-23T05:01:41.854Z,15.75
2022-09-23T05:04:14.169Z,14.20
2022-09-23T05:06:44.213Z,17.70
2022-09-23T05:09:16.301Z,13.82
2022-09-23T05:11:44.220Z,15.00
2022-09-23T05:14:12.367Z,13.45
2022-09-23T05:16:39.711Z,14.05
2022-09-23T05:19:07.165Z,13.73
2022-09-23T05:21:34.483Z,13.18
2022-09-23T05:24:02.300Z,13.00
2022-09-23T05:26:32.173Z,12.63
2022-09-23T05:29:00.547Z,14.00
2022-09-23T05:31:30.415Z,15.18
2022-09-23T05:34:00.784Z,12.98
2022-09-23T05:36:32.122Z,14.07
2022-09-23T05:39:03.987Z,13.68
2022-09-23T05:41:31.512Z,11.93
2022-09-23T05:44:01.874Z,14.32
2022-09-23T05:46:32.422Z,14.13
2022-09-23T05:49:02.995Z,14.25
2022-09-23T05:51:32.101Z,13.68
2022-09-23T05:54:00.780Z,14.30
2022-09-23T05:56:29.503Z,16.02
2022-09-23T05:58:59.437Z,12.13
2022-09-23T06:01:29.162Z,14.95
2022-09-23T06:03:58.591Z,13.73
2022-09-23T06:06:30.532Z,13.27
2022-09-23T06:08:59.561Z,12.43
2022-09-23T06:11:30.141Z,15.48
2022-09-23T06:14:02.546Z,13.25
2022-09-23T06:16:32.545Z,11.73
2022-09-23T06:19:06.469Z,15.00
2022-09-23T06:21:36.577Z,15.45
2022-09-23T06:24:05.348Z,12.43
2022-09-23T06:26:35.450Z,12.45
2022-09-23T06:29:03.932Z,12.23
2022-09-23T06:31:32.354Z,11.40
2022-09-23T06:34:09.755Z,10.95
2022-09-23T06:36:44.058Z,13.30
2022-09-23T06:39:13.831Z,10.45
2022-09-23T06:41:41.313Z,9.23
2022-09-23T06:44:14.109Z,8.55
2022-09-23T06:46:41.915Z,9.93
2022-09-23T06:49:09.558Z,8.13
2022-09-23T06:51:36.946Z,6.97
2022-09-23T06:54:04.741Z,7.88
2022-09-23T06:56:36.339Z,7.70
2022-09-23T06:59:06.872Z,7.53
2022-09-23T07:01:35.341Z,7.85
2022-09-23T07:04:02.856Z,8.82
2022-09-23T07:06:30.259Z,6.57
2022-09-23T07:08:57.781Z,7.97
2022-09-23T07:11:25.067Z,7.10
2022-09-23T07:13:52.657Z,5.95
2022-09-23T07:16:20.091Z,7.43
2022-09-23T07:18:47.617Z,7.05
2022-09-23T07:21:18.015Z,5.53
2022-09-23T07:23:47.774Z,5.63
2022-09-23T07:26:16.542Z,6.22
2022-09-23T07:28:43.900Z,5.82
2022-09-23T07:31:14.697Z,5.40
2022-09-23T07:33:44.465Z,5.57
2022-09-23T07:36:18.248Z,6.15
2022-09-23T07:38:47.576Z,5.90
2022-09-23T07:41:18.024Z,4.35
2022-09-23T07:43:46.547Z,5.18
2022-09-23T07:46:17.635Z,3.15
2022-09-23T07:48:46.149Z,3.22
2022-09-23T07:51:20.343Z,3.97
2022-09-23T07:53:49.361Z,3.75
2022-09-23T07:56:19.333Z,4.15
2022-09-23T07:59:00.429Z,3.90
2022-09-23T08:01:34.473Z,2.95
2022-09-23T08:04:10.662Z,3.70
2022-09-23T08:06:45.637Z,3.50
2022-09-23T08:09:13.278Z,3.90
2022-09-23T08:11:42.381Z,3.30
2022-09-23T08:14:12.647Z,3.83
2022-09-23T08:16:41.186Z,4.03
2022-09-23T08:19:08.714Z,4.50
2022-09-23T08:21:37.909Z,2.50
2022-09-23T08:24:07.863Z,2.65
2022-09-23T08:26:36.105Z,3.53
2022-09-23T08:29:03.763Z,3.38
2022-09-23T08:31:31.400Z,2.55
2022-09-23T08:33:59.801Z,3.20
2022-09-23T08:36:27.606Z,2.78
2022-09-23T08:38:55.762Z,2.55
2022-09-23T08:44:04.863Z,3.38
2022-09-23T08:46:37.961Z,2.80
2022-09-23T08:49:07.709Z,3.35
2022-09-23T08:51:41.451Z,2.33
2022-09-23T08:54:13.270Z,3.75
2022-09-23T08:56:44.597Z,4.43
2022-09-23T08:59:21.534Z,4.43
2022-09-23T09:01:54.607Z,3.65
2022-09-23T09:07:37.960Z,3.17
2022-09-23T09:23:23.569Z,4.03
2022-09-23T09:26:02.971Z,3.58
2022-09-23T09:28:38.334Z,4.15
2022-09-23T15:15:48.416Z,7.85
2022-09-23T15:18:24.019Z,7.45
2022-09-23T15:20:54.499Z,7.50
2022-09-23T15:26:18.426Z,8.75
2022-09-23T15:28:47.034Z,9.32
2022-09-23T15:31:16.396Z,8.95
2022-09-23T15:33:47.837Z,8.02
2022-09-23T15:36:19.401Z,7.43
2022-09-23T15:38:47.758Z,8.98
2022-09-23T15:41:16.690Z,6.72
2022-09-23T15:43:44.610Z,6.43
2022-09-23T15:46:18.928Z,9.15
2022-09-23T15:51:32.627Z,9.35
2022-09-23T15:54:05.307Z,8.93
2022-09-23T15:56:34.666Z,8.05
2022-09-23T15:59:02.057Z,10.15
2022-09-23T16:01:32.182Z,7.60
2022-09-23T16:04:01.489Z,9.07
2022-09-23T16:06:29.563Z,9.23
2022-09-23T16:08:57.294Z,13.73
2022-09-23T16:11:32.037Z,11.82
2022-09-23T16:14:00.940Z,12.45
2022-09-23T16:16:28.746Z,11.85
2022-09-23T16:18:56.574Z,12.55
2022-09-23T16:21:26.756Z,10.50
2022-09-23T16:23:55.191Z,12.60
2022-09-23T16:26:25.994Z,10.95
2022-09-23T16:28:55.241Z,11.63
2022-09-23T16:31:25.917Z,12.68
2022-09-23T16:33:54.049Z,11.82
2022-09-23T16:36:31.507Z,14.90
2022-09-23T16:39:01.137Z,13.35
2022-09-23T16:41:31.719Z,10.35
2022-09-23T16:44:01.263Z,10.50
2022-09-23T16:46:29.520Z,12.73
2022-09-23T16:48:57.865Z,11.77
2022-09-23T17:54:04.353Z,12.70
2022-09-23T17:56:37.447Z,10.60
2022-09-23T17:59:05.396Z,8.05
2022-09-23T18:01:33.269Z,12.90
2022-09-23T18:04:02.135Z,9.80
2022-09-23T18:06:40.028Z,13.65
2022-09-23T18:09:10.336Z,10.73
2022-09-23T18:11:40.843Z,10.77
2022-09-23T18:14:14.269Z,11.80
2022-09-23T18:16:44.435Z,11.00
2022-09-23T18:19:15.240Z,11.95
2022-09-23T18:21:45.195Z,9.35
2022-09-23T18:24:32.464Z,9.55
2022-09-23T18:27:01.324Z,10.00
2022-09-23T18:29:29.125Z,11.73
2022-09-23T18:31:57.103Z,9.50
2022-09-23T18:34:24.605Z,9.43
2022-09-23T18:36:52.124Z,12.32
2022-09-23T18:39:23.701Z,15.07
2022-09-23T18:41:52.855Z,12.90
2022-09-23T18:44:20.474Z,10.15
2022-09-23T18:46:48.185Z,9.63
2022-09-23T18:49:35.505Z,10.85
2022-09-23T18:52:03.006Z,11.75
2022-09-23T18:54:30.782Z,11.80
2022-09-23T18:56:59.700Z,11.07
2022-09-23T18:59:30.188Z,10.40
2022-09-23T19:01:58.286Z,7.93
2022-09-23T19:04:27.457Z,11.45
2022-09-23T19:06:56.850Z,10.18
2022-09-23T19:09:24.733Z,9.57
2022-09-23T19:11:53.095Z,9.07
2022-09-23T19:14:21.044Z,9.23
2022-09-23T19:16:49.816Z,7.68
2022-09-23T19:19:17.542Z,11.68
2022-09-23T19:21:45.139Z,9.70
2022-09-23T19:24:16.339Z,8.55
2022-09-23T19:26:44.435Z,11.30
2022-09-23T19:29:16.556Z,9.73
2022-09-23T19:31:44.415Z,9.93
2022-09-23T19:34:15.187Z,7.53
2022-09-23T19:36:44.819Z,10.40
2022-09-23T19:39:22.601Z,9.55
2022-09-23T19:41:51.007Z,8.30
2022-09-23T19:44:20.375Z,11.05
2022-09-23T19:46:55.067Z,7.25
2022-09-23T19:49:25.005Z,8.18
2022-09-23T19:51:56.163Z,10.35
2022-09-23T19:54:26.869Z,8.13
2022-09-23T19:56:54.808Z,9.13
2022-09-23T19:59:22.225Z,8.75
2022-09-23T20:01:49.693Z,7.93
2022-09-23T20:04:17.553Z,7.18
2022-09-23T20:06:46.257Z,9.73
2022-09-23T20:09:14.083Z,8.88
2022-09-23T20:11:43.353Z,8.15
2022-09-23T20:14:12.020Z,8.02
2022-09-23T20:16:39.420Z,8.27
2022-09-23T20:19:06.921Z,7.80
2022-09-23T20:21:34.641Z,7.82
2022-09-23T20:24:05.515Z,8.45
2022-09-23T20:26:52.841Z,10.27
2022-09-23T20:29:20.190Z,8.90
2022-09-23T20:31:47.949Z,7.07
2022-09-23T20:34:15.413Z,7.78
2022-09-23T20:36:42.933Z,9.88
2022-09-23T20:39:10.561Z,10.73
2022-09-23T20:41:39.558Z,9.55
2022-09-23T20:44:10.583Z,7.40
2022-09-23T20:46:38.084Z,9.63
2022-09-23T20:49:09.020Z,8.48
2022-09-23T20:51:37.376Z,8.52
2022-09-23T20:54:04.804Z,8.52
2022-09-23T20:56:32.268Z,8.18
2022-09-23T20:59:01.195Z,9.98
2022-09-23T21:01:28.821Z,8.90
2022-09-23T21:03:56.213Z,9.43
2022-09-23T21:06:26.315Z,8.30
2022-09-23T21:08:55.174Z,9.50
2022-09-23T21:11:22.965Z,8.32
2022-09-23T21:13:51.731Z,8.60
2022-09-23T21:16:22.794Z,10.23
2022-09-23T21:18:51.863Z,8.65
2022-09-23T21:21:22.360Z,9.45
2022-09-23T21:23:50.883Z,11.63
2022-09-23T21:26:23.569Z,8.52
2022-09-23T21:28:53.390Z,8.02
2022-09-23T21:31:23.821Z,7.57
2022-09-23T21:33:54.222Z,8.10
2022-09-23T21:36:21.945Z,7.53
2022-09-23T21:38:49.774Z,10.02
2022-09-23T21:41:17.973Z,7.43
2022-09-23T21:43:45.849Z,8.43
2022-09-23T21:46:14.922Z,6.85
2022-09-23T21:48:43.093Z,7.68
2022-09-23T21:51:13.565Z,13.50
2022-09-23T21:53:42.538Z,10.55
2022-09-23T21:56:20.499Z,8.75
2022-09-23T21:58:49.168Z,9.38
2022-09-23T22:01:19.491Z,10.70
2022-09-23T22:06:32.701Z,13.82
2022-09-23T22:09:02.358Z,15.68
2022-09-23T22:11:51.934Z,11.77
2022-09-23T22:14:20.958Z,14.23
2022-09-23T22:16:48.253Z,13.48
2022-09-23T22:19:15.818Z,14.48
2022-09-23T22:21:45.653Z,16.13
2022-09-23T22:24:13.788Z,12.07
2022-09-23T22:26:43.069Z,11.85
2022-09-23T22:29:33.649Z,11.82
2022-09-23T22:32:22.430Z,12.98
2022-09-23T22:34:51.482Z,14.95
2022-09-23T22:37:21.850Z,13.55
2022-09-23T22:39:49.266Z,11.75
2022-09-23T22:42:16.517Z,10.30
2022-09-23T22:44:43.744Z,10.02
2022-09-23T22:47:11.192Z,9.98
2022-09-23T22:49:38.562Z,10.63
2022-09-23T22:52:11.479Z,8.93
2022-09-23T22:54:38.845Z,11.43
2022-09-23T22:57:08.491Z,10.02
2022-09-23T22:59:37.164Z,9.45
2022-09-23T23:02:05.308Z,10.13
2022-09-23T23:04:34.050Z,10.23
2022-09-23T23:07:01.358Z,9.40
2022-09-23T23:09:28.552Z,10.98
2022-09-23T23:11:55.820Z,8.82
2022-09-23T23:14:23.041Z,8.15
2022-09-23T23:16:50.421Z,8.93
2022-09-23T23:19:19.440Z,8.13
2022-09-23T23:21:46.791Z,8.45
2022-09-23T23:24:19.080Z,7.25
2022-09-23T23:26:46.902Z,6.90
2022-09-23T23:29:16.285Z,7.82
2022-09-23T23:31:44.599Z,9.27
2022-09-23T23:34:14.767Z,6.72
2022-09-23T23:36:43.811Z,7.55
2022-09-23T23:39:11.488Z,5.47
2022-09-23T23:41:40.334Z,6.80
2022-09-23T23:44:08.072Z,5.93
2022-09-23T23:46:37.464Z,6.22
2022-09-23T23:49:05.336Z,8.48
2022-09-23T23:51:32.792Z,7.15
2022-09-23T23:54:00.386Z,5.82
2022-09-23T23:56:28.155Z,5.68
2022-09-23T23:58:58.387Z,7.22
